METAR AND TAF INFORMATION
METAR FOR LBWN
ADDS - METARS form results

(0045 UTC 24 February 2019)
Data provider http://aviationweather.gov/metar/data/
 
METAR text: LBWN 240030Z 31004KT 230V020 9999 FEW018 SCT024 M06/M09 Q1037 NOSIG
Conditions at: LBWN (VARNA , BG) observed 0030 UTC 24 February 2019
Temperature: -6.0°C (21°F)
Dewpoint: -9.0°C (16°F) [RH = 79%]
Pressure (altimeter): 30.62 inches Hg (1037.0 mb)
Winds: from the NW (310 degrees) at 5 MPH (4 knots; 2.1 m/s)
Visibility: 6 or more miles (10+ km)
Ceiling: at least 12,000 feet AGL
Clouds: few clouds at 1800 feet AGL
scattered clouds at 2400 feet AGL
Weather: no significant weather observed at this time

METAR text: LBWN 240000Z 33009KT 9999 SCT017 BKN020 M06/M09 Q1037 NOSIG
Conditions at: LBWN (VARNA , BG) observed 0000 UTC 24 February 2019
Temperature: -6.0°C (21°F)
Dewpoint: -9.0°C (16°F) [RH = 79%]
Pressure (altimeter): 30.62 inches Hg (1037.0 mb)
Winds: from the NNW (330 degrees) at 10 MPH (9 knots; 4.6 m/s)
Visibility: 6 or more miles (10+ km)
Ceiling: 2000 feet AGL
Clouds: scattered clouds at 1700 feet AGL
broken clouds at 2000 feet AGL
Weather: no significant weather observed at this time

Forecast for: LBWN (VARNA , BG)
Text: TAF LBWN 232300Z 2400/2424 35012KT 9999 SCT020 BKN040
Forecast period: 0000 UTC 24 February 2019 to 0000 UTC 25 February 2019
Forecast type: FROM: standard forecast or significant change
Winds: from the N (350 degrees) at 14 MPH (12 knots; 6.2 m/s)
Visibility: 6 or more miles 10+ km)
Ceiling: 4000 feet AGL
Clouds: scattered clouds at 2000 feet AGL
broken clouds at 4000 feet AGL
Weather: no significant weather forecast for this period

 AIRPORT MAP

 RUNWAY INFORMATION
Runway 09 Runway length 8202 ft Runway width 180 ft
Runway elevation 203 ft Runway displaced threshold 0 ft Runway heading 97
Runway 27 Runway length 8202 ft Runway width 180 ft
Runway elevation 217 ft Runway displaced threshold 0 ft Runway heading 277

 AIRPORT FREQUENCIES
Type APP Name APP Frequency 121 MHZ
Type ATIS Name ATIS Frequency 118.075 MHZ
Type TWR Name TWR Frequency 119.5 MHZ

 AIRPORT NEAR NAVIGATION AIDS
Type NDB Name Devnya Frequency 350 KHZ
Type NDB Name Varna Frequency 375 KHZ
Type NDB Name Varna Frequency 335 KHZ
Type NDB Name Varna Frequency 397 KHZ
Type NDB Name Varna Frequency 526 KHZ
Type VOR-DME Name Varna Frequency 112400 KHZ



Datenschutz / Privacy Policy  •  Impressum / Imprint  •  Disclaimer

Powered by Virtual Airlines Manager [v2.6.2]